Knoxville, Tennessee
Current Conditions -  °F | °C
As of 11:53 PM on Friday 19 Dec 2014 (Local Time) from KTYS Reporting Station
Overcast Overcast  
Wind Chill:   Ceiling: 12000
Heat Index:   Visibility: 10mi
Dew Point: -2°   Wind: 5mph
Humidity: 68%   Direction: 330°NNW
Pressure: 30.19"   Gusts: NA
Location:  35.96°N, 83.92°W
Report Text: KTYS 200453Z 33004KT 10SM BKN120 OVC180 03/M02 A3019 RMK AO2 SLP227 T00331022 400781006
Loading
Personal Weather Stations






























Interactive Weather Map New forecast layout! Learn more

10-Day Weather Forecast

Advertisements
Track Severe Weather on mobile